createdAt,value
2018-04-14T00:00:23.523Z,11.64
2018-04-14T00:01:23.538Z,11.49
2018-04-14T00:02:23.572Z,11.52
2018-04-14T00:03:23.578Z,11.19
2018-04-14T00:04:23.597Z,11.39
2018-04-14T00:05:23.616Z,11.36
2018-04-14T00:06:23.637Z,11.56
2018-04-14T00:07:23.658Z,11.34
2018-04-14T00:08:23.670Z,10.86
2018-04-14T00:09:23.696Z,10.51
2018-04-14T00:10:23.714Z,10.53
2018-04-14T00:11:23.737Z,10.89
2018-04-14T00:12:23.766Z,10.92
2018-04-14T00:13:23.774Z,11.07
2018-04-14T00:14:23.795Z,10.81
2018-04-14T00:15:23.816Z,10.99
2018-04-14T00:16:23.829Z,10.94
2018-04-14T00:17:23.856Z,10.59
2018-04-14T00:18:23.870Z,10.63
2018-04-14T00:19:23.896Z,10.40
2018-04-14T00:20:23.920Z,10.30
2018-04-14T00:21:23.931Z,10.30
2018-04-14T00:22:23.950Z,10.32
2018-04-14T00:23:23.966Z,10.33
2018-04-14T00:24:23.988Z,10.18
2018-04-14T00:25:24.007Z,10.47
2018-04-14T00:26:24.030Z,10.71
2018-04-14T00:27:24.060Z,10.55
2018-04-14T00:28:24.081Z,10.39
2018-04-14T00:29:24.137Z,10.51
2018-04-14T00:30:24.109Z,10.33
2018-04-14T00:31:24.154Z,10.39
2018-04-14T00:32:24.145Z,10.33
2018-04-14T00:33:24.170Z,10.34
2018-04-14T00:34:24.192Z,10.25
2018-04-14T00:35:24.203Z,10.37
2018-04-14T00:36:24.226Z,10.26
2018-04-14T00:37:24.238Z,10.42
2018-04-14T00:38:24.264Z,10.42
2018-04-14T00:39:24.282Z,10.34
2018-04-14T00:40:24.300Z,10.30
2018-04-14T00:41:24.319Z,10.25
2018-04-14T00:42:24.337Z,10.19
2018-04-14T00:43:24.360Z,10.56
2018-04-14T00:44:24.376Z,10.63
2018-04-14T00:45:24.398Z,10.84
2018-04-14T00:46:24.417Z,10.92
2018-04-14T00:47:24.431Z,10.56
2018-04-14T00:48:24.455Z,10.33
2018-04-14T00:49:24.466Z,10.15
2018-04-14T00:50:24.488Z,10.43
2018-04-14T00:51:24.516Z,10.44
2018-04-14T00:52:24.529Z,10.74
2018-04-14T00:53:24.549Z,10.63
2018-04-14T00:54:24.567Z,10.36
2018-04-14T00:55:24.587Z,10.44
2018-04-14T00:56:24.601Z,10.60
2018-04-14T00:57:24.622Z,10.70
2018-04-14T00:58:24.647Z,10.63
2018-04-14T00:59:24.664Z,10.30
2018-04-14T01:00:24.687Z,10.21
2018-04-14T01:01:24.702Z,10.06
2018-04-14T01:02:24.720Z,10.10
2018-04-14T01:03:24.739Z,10.17
2018-04-14T01:04:24.799Z,10.10
2018-04-14T01:05:24.775Z,10.04
2018-04-14T01:06:24.795Z,10.09
2018-04-14T01:07:24.828Z,10.18
2018-04-14T01:08:24.838Z,10.07
2018-04-14T01:09:24.854Z,9.96
2018-04-14T01:10:24.876Z,10.12
2018-04-14T01:11:24.896Z,10.19
2018-04-14T01:12:24.911Z,10.33
2018-04-14T01:13:24.930Z,10.46
2018-04-14T01:14:24.954Z,10.73
2018-04-14T01:15:24.971Z,10.46
2018-04-14T01:16:24.991Z,10.47
2018-04-14T01:17:25.008Z,10.52
2018-04-14T01:18:25.030Z,10.33
2018-04-14T01:19:25.057Z,10.10
2018-04-14T01:20:25.079Z,9.93
2018-04-14T01:21:25.087Z,9.91
2018-04-14T01:22:25.101Z,10.00
2018-04-14T01:23:25.121Z,10.09
2018-04-14T01:24:25.144Z,9.91
2018-04-14T01:25:25.169Z,9.81
2018-04-14T01:26:25.179Z,9.83
2018-04-14T01:27:25.201Z,9.94
2018-04-14T01:28:25.218Z,9.96
2018-04-14T01:29:25.245Z,9.76
2018-04-14T01:30:25.266Z,9.96
2018-04-14T01:31:25.288Z,10.12
2018-04-14T01:32:25.299Z,10.18
2018-04-14T01:33:25.314Z,9.91
2018-04-14T01:34:25.335Z,9.79
2018-04-14T01:35:25.356Z,9.71
2018-04-14T01:36:25.376Z,9.64
2018-04-14T01:37:25.387Z,9.49
2018-04-14T01:38:25.412Z,9.49
2018-04-14T01:39:25.435Z,9.43
2018-04-14T01:40:25.448Z,9.48
2018-04-14T01:41:25.463Z,9.63
2018-04-14T01:42:25.486Z,9.58
2018-04-14T01:43:25.505Z,9.58
2018-04-14T01:44:25.525Z,9.67
2018-04-14T01:45:25.538Z,9.81
2018-04-14T01:46:25.558Z,9.96
2018-04-14T01:47:25.577Z,10.07
2018-04-14T01:48:25.594Z,10.26
2018-04-14T01:49:25.625Z,10.10
2018-04-14T01:50:25.644Z,9.94
2018-04-14T01:51:25.654Z,9.91
2018-04-14T01:52:25.672Z,9.58
2018-04-14T01:53:25.689Z,9.63
2018-04-14T01:54:25.711Z,9.63
2018-04-14T01:55:25.732Z,9.64
2018-04-14T01:56:25.747Z,9.70
2018-04-14T01:57:25.759Z,9.71
2018-04-14T01:58:25.792Z,9.82
2018-04-14T01:59:25.805Z,9.81
2018-04-14T02:00:25.823Z,9.78
2018-04-14T02:01:25.846Z,9.85
2018-04-14T02:02:25.859Z,9.68
2018-04-14T02:03:25.875Z,9.91
2018-04-14T02:04:25.896Z,9.75
2018-04-14T02:05:25.921Z,9.71
2018-04-14T02:06:25.933Z,9.94
2018-04-14T02:07:25.960Z,9.76
2018-04-14T02:08:25.977Z,9.76
2018-04-14T02:09:25.990Z,9.78
2018-04-14T02:10:26.013Z,9.56
2018-04-14T02:11:26.028Z,9.68
2018-04-14T02:12:26.051Z,9.38
2018-04-14T02:13:26.064Z,9.58
2018-04-14T02:14:26.085Z,9.64
2018-04-14T02:15:26.102Z,9.60
2018-04-14T02:16:26.148Z,9.53
2018-04-14T02:17:26.142Z,9.67
2018-04-14T02:18:26.159Z,9.39
2018-04-14T02:19:26.177Z,9.45
2018-04-14T02:20:26.206Z,9.48
2018-04-14T02:21:26.214Z,9.60
2018-04-14T02:22:26.236Z,9.63
2018-04-14T02:23:26.259Z,9.53
2018-04-14T02:24:26.282Z,9.45
2018-04-14T02:25:26.291Z,9.46
2018-04-14T02:26:26.309Z,9.35
2018-04-14T02:27:26.331Z,9.35
2018-04-14T02:28:26.360Z,9.50
2018-04-14T02:29:26.391Z,9.63
2018-04-14T02:30:26.384Z,9.31
2018-04-14T02:31:26.432Z,9.57
2018-04-14T02:32:26.438Z,9.71
2018-04-14T02:33:26.440Z,9.97
2018-04-14T02:34:26.464Z,9.99
2018-04-14T02:35:26.482Z,9.66
2018-04-14T02:36:26.495Z,9.70
2018-04-14T02:37:26.510Z,9.60
2018-04-14T02:38:26.529Z,9.56
2018-04-14T02:39:26.572Z,9.71
2018-04-14T02:40:26.570Z,9.57
2018-04-14T02:41:26.588Z,9.91
2018-04-14T02:42:26.608Z,9.75
2018-04-14T02:43:26.635Z,9.67
2018-04-14T02:44:26.650Z,9.86
2018-04-14T02:45:26.666Z,9.96
2018-04-14T02:46:26.678Z,9.63
2018-04-14T02:47:26.728Z,9.97
2018-04-14T02:48:26.723Z,9.91
2018-04-14T02:49:26.732Z,9.50
2018-04-14T02:50:26.753Z,9.63
2018-04-14T02:51:26.777Z,9.56
2018-04-14T02:52:26.793Z,9.60
2018-04-14T02:53:26.814Z,9.68
2018-04-14T02:54:26.831Z,9.61
2018-04-14T02:55:26.843Z,9.46
2018-04-14T02:56:26.862Z,9.50
2018-04-14T02:57:26.890Z,9.25
2018-04-14T02:58:26.920Z,9.35
2018-04-14T02:59:26.928Z,9.23
2018-04-14T03:00:26.942Z,9.42
2018-04-14T03:01:26.970Z,9.32
2018-04-14T03:02:26.982Z,9.39
2018-04-14T03:03:27.000Z,9.30
2018-04-14T03:04:27.011Z,9.28
2018-04-14T03:05:27.035Z,9.34
2018-04-14T03:06:27.096Z,9.24
2018-04-14T03:07:27.069Z,9.06
2018-04-14T03:08:27.088Z,9.30
2018-04-14T03:09:27.109Z,9.28
2018-04-14T03:10:27.138Z,9.71
2018-04-14T03:11:27.148Z,9.79
2018-04-14T03:12:27.163Z,9.96
2018-04-14T03:13:27.183Z,9.76
2018-04-14T03:14:27.206Z,9.66
2018-04-14T03:15:27.224Z,9.73
2018-04-14T03:16:27.235Z,9.82
2018-04-14T03:17:27.254Z,9.94
2018-04-14T03:18:27.317Z,9.83
2018-04-14T03:19:27.302Z,9.66
2018-04-14T03:20:27.308Z,9.28
2018-04-14T03:21:27.323Z,9.10
2018-04-14T03:22:27.346Z,9.27
2018-04-14T03:23:27.427Z,9.27
2018-04-14T03:24:27.381Z,9.18
2018-04-14T03:25:27.402Z,8.99
2018-04-14T03:26:27.421Z,8.90
2018-04-14T03:27:27.440Z,8.84
2018-04-14T03:28:27.458Z,8.69
2018-04-14T03:29:27.478Z,8.58
2018-04-14T03:30:27.495Z,8.44
2018-04-14T03:31:27.520Z,8.50
2018-04-14T03:32:27.531Z,8.78
2018-04-14T03:33:27.551Z,8.71
2018-04-14T03:34:27.571Z,8.75
2018-04-14T03:35:27.585Z,8.69
2018-04-14T03:36:27.607Z,8.93
2018-04-14T03:37:27.629Z,9.18
2018-04-14T03:38:27.644Z,9.25
2018-04-14T03:39:27.661Z,9.24
2018-04-14T03:40:27.681Z,8.94
2018-04-14T03:41:27.756Z,8.90
2018-04-14T03:42:27.714Z,8.91
2018-04-14T03:43:27.734Z,9.09
2018-04-14T03:44:27.753Z,8.76
2018-04-14T03:45:27.772Z,8.84
2018-04-14T03:46:27.795Z,8.93
2018-04-14T03:47:27.814Z,9.05
2018-04-14T03:48:27.824Z,9.32
2018-04-14T03:49:27.855Z,9.16
2018-04-14T03:50:27.867Z,9.32
2018-04-14T03:51:27.878Z,9.48
2018-04-14T03:52:27.900Z,9.32
2018-04-14T03:53:27.920Z,8.93
2018-04-14T03:54:27.933Z,9.06
2018-04-14T03:55:27.958Z,8.87
2018-04-14T03:56:27.976Z,9.24
2018-04-14T03:57:27.999Z,9.38
2018-04-14T03:58:28.020Z,9.09
2018-04-14T03:59:28.027Z,8.93
2018-04-14T04:00:28.038Z,8.97
2018-04-14T04:01:28.061Z,8.88
2018-04-14T04:02:28.089Z,9.01
2018-04-14T04:03:28.099Z,9.20
2018-04-14T04:04:28.121Z,9.31
2018-04-14T04:05:28.136Z,9.40
2018-04-14T04:06:28.178Z,9.45
2018-04-14T04:07:28.169Z,9.49
2018-04-14T04:08:28.195Z,9.18
2018-04-14T04:09:28.206Z,8.97
2018-04-14T04:10:28.227Z,8.86
2018-04-14T04:11:28.250Z,8.72
2018-04-14T04:12:28.259Z,8.69
2018-04-14T04:13:28.281Z,8.63
2018-04-14T04:14:28.304Z,8.55
2018-04-14T04:15:28.319Z,9.02
2018-04-14T04:16:28.347Z,8.86
2018-04-14T04:17:28.356Z,8.99
2018-04-14T04:18:28.373Z,9.25
2018-04-14T04:19:28.408Z,9.34
2018-04-14T04:20:28.405Z,9.50
2018-04-14T04:21:28.427Z,9.23
2018-04-14T04:22:28.449Z,8.75
2018-04-14T04:23:28.478Z,8.69
2018-04-14T04:24:28.478Z,8.62
2018-04-14T04:25:28.504Z,8.50
2018-04-14T04:26:28.527Z,8.97
2018-04-14T04:27:28.544Z,9.06
2018-04-14T04:28:28.567Z,9.34
2018-04-14T04:29:28.573Z,9.24
2018-04-14T04:30:28.590Z,9.32
2018-04-14T04:31:28.640Z,9.34
2018-04-14T04:32:28.629Z,9.53
2018-04-14T04:33:28.647Z,9.58
2018-04-14T04:34:28.665Z,9.24
2018-04-14T04:35:28.683Z,9.50
2018-04-14T04:36:28.717Z,9.60
2018-04-14T04:37:28.714Z,9.38
2018-04-14T04:38:28.737Z,9.20
2018-04-14T04:39:28.753Z,9.46
2018-04-14T04:40:28.773Z,9.31
2018-04-14T04:41:28.790Z,9.49
2018-04-14T04:42:28.812Z,9.30
2018-04-14T04:43:28.835Z,9.38
2018-04-14T04:44:28.842Z,9.35
2018-04-14T04:45:28.874Z,9.34
2018-04-14T04:46:28.879Z,9.40
2018-04-14T04:47:28.898Z,9.35
2018-04-14T04:48:28.917Z,9.42
2018-04-14T04:49:28.934Z,9.30
2018-04-14T04:50:28.957Z,9.38
2018-04-14T04:51:28.971Z,9.13
2018-04-14T04:52:28.996Z,8.93
2018-04-14T04:53:29.004Z,8.93
2018-04-14T04:54:29.043Z,8.94
2018-04-14T04:55:29.046Z,8.72
2018-04-14T04:56:29.064Z,8.71
2018-04-14T04:57:29.076Z,8.81
2018-04-14T04:58:29.104Z,8.90
2018-04-14T04:59:29.118Z,8.68
2018-04-14T05:00:29.135Z,8.55
2018-04-14T05:01:29.154Z,8.51
2018-04-14T05:02:29.168Z,8.47
2018-04-14T05:03:29.190Z,8.48
2018-04-14T05:04:29.212Z,8.47
2018-04-14T05:05:29.225Z,8.42
2018-04-14T05:06:29.243Z,8.58
2018-04-14T05:07:29.253Z,8.60
2018-04-14T05:08:29.279Z,8.62
2018-04-14T05:09:29.300Z,8.50
2018-04-14T05:10:29.313Z,8.62
2018-04-14T05:11:29.330Z,8.87
2018-04-14T05:12:29.348Z,9.04
2018-04-14T05:13:29.373Z,9.10
2018-04-14T05:14:29.385Z,9.24
2018-04-14T05:15:29.425Z,9.39
2018-04-14T05:16:29.423Z,9.34
2018-04-14T05:17:29.444Z,9.38
2018-04-14T05:18:29.459Z,9.28
2018-04-14T05:19:29.480Z,9.06
2018-04-14T05:20:29.493Z,9.28
2018-04-14T05:21:29.516Z,9.35
2018-04-14T05:22:29.532Z,9.34
2018-04-14T05:23:29.542Z,9.02
2018-04-14T05:24:29.562Z,8.91
2018-04-14T05:25:29.584Z,8.87
2018-04-14T05:26:29.649Z,8.86
2018-04-14T05:27:29.625Z,8.97
2018-04-14T05:28:29.643Z,8.96
2018-04-14T05:29:29.658Z,8.93
2018-04-14T05:30:29.674Z,9.18
2018-04-14T05:31:29.695Z,9.06
2018-04-14T05:32:29.715Z,9.21
2018-04-14T05:33:29.726Z,9.32
2018-04-14T05:34:29.743Z,9.60
2018-04-14T05:35:29.769Z,9.49
2018-04-14T05:36:29.787Z,9.18
2018-04-14T05:37:29.853Z,9.09
2018-04-14T05:38:29.818Z,9.20
2018-04-14T05:39:29.837Z,9.10
2018-04-14T05:40:29.861Z,9.21
2018-04-14T05:41:29.891Z,9.30
2018-04-14T05:42:29.887Z,9.27
2018-04-14T05:43:29.914Z,9.25
2018-04-14T05:44:29.927Z,9.25
2018-04-14T05:45:29.942Z,9.23
2018-04-14T05:46:29.965Z,9.21
2018-04-14T05:47:29.994Z,9.32
2018-04-14T05:48:30.001Z,9.45
2018-04-14T05:49:30.021Z,9.50
2018-04-14T05:50:30.039Z,9.46
2018-04-14T05:51:30.058Z,9.56
2018-04-14T05:52:30.078Z,9.48
2018-04-14T05:53:30.085Z,9.57
2018-04-14T05:54:30.111Z,9.63
2018-04-14T05:55:30.130Z,9.86
2018-04-14T05:56:30.154Z,9.76
2018-04-14T05:57:30.165Z,9.82
2018-04-14T05:58:30.183Z,10.01
2018-04-14T05:59:30.203Z,10.12
2018-04-14T06:00:30.217Z,9.88
2018-04-14T06:01:30.240Z,9.78
2018-04-14T06:02:30.261Z,9.68
2018-04-14T06:03:30.270Z,9.79
2018-04-14T06:04:30.299Z,9.96
2018-04-14T06:05:30.311Z,10.09
2018-04-14T06:06:30.334Z,10.15
2018-04-14T06:07:30.350Z,10.32
2018-04-14T06:08:30.363Z,10.28
2018-04-14T06:09:30.388Z,10.28
2018-04-14T06:10:30.403Z,10.33
2018-04-14T06:11:30.423Z,10.24
2018-04-14T06:12:30.444Z,10.30
2018-04-14T06:13:30.460Z,10.25
2018-04-14T06:14:30.484Z,10.26
2018-04-14T06:15:30.502Z,10.40
2018-04-14T06:16:30.522Z,10.40
2018-04-14T06:17:30.529Z,10.46
2018-04-14T06:18:30.556Z,10.42
2018-04-14T06:19:30.584Z,10.56
2018-04-14T06:20:30.587Z,10.52
2018-04-14T06:21:30.636Z,10.73
2018-04-14T06:22:30.627Z,10.68
2018-04-14T06:23:30.650Z,10.68
2018-04-14T06:24:30.674Z,10.65
2018-04-14T06:25:30.687Z,10.71
2018-04-14T06:26:30.700Z,10.70
2018-04-14T06:27:30.715Z,10.76
2018-04-14T06:28:30.744Z,10.73
2018-04-14T06:29:30.754Z,10.77
2018-04-14T06:30:30.783Z,10.76
2018-04-14T06:31:30.795Z,10.77
2018-04-14T06:32:30.817Z,10.77
2018-04-14T06:33:30.843Z,10.88
2018-04-14T06:34:30.852Z,10.84
2018-04-14T06:35:30.868Z,10.81
2018-04-14T06:36:30.890Z,10.76
2018-04-14T06:37:30.909Z,10.74
2018-04-14T06:38:30.928Z,10.74
2018-04-14T06:39:30.947Z,10.71
2018-04-14T06:40:30.964Z,10.73
2018-04-14T06:41:30.988Z,10.70
2018-04-14T06:42:31.014Z,10.71
2018-04-14T06:43:31.026Z,10.66
2018-04-14T06:44:31.040Z,10.81
2018-04-14T06:45:31.075Z,10.83
2018-04-14T06:46:31.081Z,10.80
2018-04-14T06:47:31.102Z,10.78
2018-04-14T06:48:31.125Z,10.86
2018-04-14T06:49:31.137Z,10.91
2018-04-14T06:50:31.168Z,11.02
2018-04-14T06:51:31.192Z,11.07
2018-04-14T06:52:31.190Z,11.25
2018-04-14T06:53:31.211Z,11.34
2018-04-14T06:54:31.237Z,11.43
2018-04-14T06:55:31.256Z,11.49
2018-04-14T06:56:31.272Z,11.43
2018-04-14T06:57:31.292Z,11.43
2018-04-14T06:58:31.307Z,11.61
2018-04-14T06:59:31.339Z,11.65
2018-04-14T07:00:31.348Z,11.64
2018-04-14T07:01:31.365Z,11.64
2018-04-14T07:02:31.392Z,11.61
2018-04-14T07:03:31.420Z,11.61
2018-04-14T07:04:31.454Z,11.50
2018-04-14T07:05:31.446Z,11.74
2018-04-14T07:06:31.466Z,11.77
2018-04-14T07:07:31.504Z,11.71
2018-04-14T07:08:31.505Z,11.68
2018-04-14T07:09:31.527Z,11.68
2018-04-14T07:10:31.540Z,11.70
2018-04-14T07:11:31.562Z,11.72
2018-04-14T07:12:31.583Z,11.82
2018-04-14T07:13:31.601Z,11.70
2018-04-14T07:14:31.619Z,11.77
2018-04-14T07:15:31.642Z,11.68
2018-04-14T07:16:31.666Z,11.82
2018-04-14T07:17:31.685Z,12.01
2018-04-14T07:18:31.705Z,12.12
2018-04-14T07:19:31.729Z,12.15
2018-04-14T07:20:31.748Z,12.13
2018-04-14T07:21:31.759Z,12.23
2018-04-14T07:22:31.809Z,12.04
2018-04-14T07:23:31.819Z,12.08
2018-04-14T07:24:31.817Z,12.20
2018-04-14T07:25:31.832Z,12.26
2018-04-14T07:26:31.853Z,12.37
2018-04-14T07:27:31.881Z,12.33
2018-04-14T07:28:31.897Z,12.15
2018-04-14T07:29:31.922Z,12.34
2018-04-14T07:30:31.935Z,12.33
2018-04-14T07:31:31.961Z,12.33
2018-04-14T07:32:31.980Z,12.41
2018-04-14T07:33:32.003Z,12.39
2018-04-14T07:34:32.012Z,12.24
2018-04-14T07:35:32.041Z,12.39
2018-04-14T07:36:32.052Z,12.37
2018-04-14T07:37:32.118Z,12.21
2018-04-14T07:38:32.093Z,12.41
2018-04-14T07:39:32.115Z,12.41
2018-04-14T07:40:32.134Z,12.31
2018-04-14T07:41:32.160Z,12.38
2018-04-14T07:42:32.175Z,12.45
2018-04-14T07:43:32.197Z,12.59
2018-04-14T07:44:32.210Z,12.66
2018-04-14T07:45:32.234Z,12.74
2018-04-14T07:46:32.254Z,12.69
2018-04-14T07:47:32.281Z,12.82
2018-04-14T07:48:32.309Z,12.84
2018-04-14T07:49:32.320Z,12.77
2018-04-14T07:50:32.336Z,12.92
2018-04-14T07:51:32.357Z,12.70
2018-04-14T07:52:32.371Z,12.71
2018-04-14T07:53:32.418Z,12.78
2018-04-14T07:54:32.420Z,12.71
2018-04-14T07:55:32.450Z,12.75
2018-04-14T07:56:32.463Z,12.99
2018-04-14T07:57:32.481Z,12.92
2018-04-14T07:58:32.498Z,12.99
2018-04-14T07:59:32.536Z,13.11
2018-04-14T08:00:32.541Z,13.07
2018-04-14T08:01:32.568Z,13.20
2018-04-14T08:02:32.574Z,13.33
2018-04-14T08:03:32.602Z,13.22
2018-04-14T08:04:32.617Z,13.40
2018-04-14T08:05:32.644Z,13.36
2018-04-14T08:06:32.656Z,13.49
2018-04-14T08:07:32.690Z,13.41
2018-04-14T08:08:32.703Z,13.51
2018-04-14T08:09:32.721Z,13.43
2018-04-14T08:10:32.741Z,13.38
2018-04-14T08:11:32.806Z,13.54
2018-04-14T08:12:32.784Z,13.55
2018-04-14T08:13:32.826Z,13.56
2018-04-14T08:14:32.822Z,13.63
2018-04-14T08:15:32.845Z,13.70
2018-04-14T08:16:32.864Z,13.74
2018-04-14T08:17:32.891Z,13.76
2018-04-14T08:18:32.919Z,13.69
2018-04-14T08:19:32.923Z,13.59
2018-04-14T08:20:32.963Z,13.65
2018-04-14T08:21:32.979Z,13.87
2018-04-14T08:22:33.007Z,13.91
2018-04-14T08:23:33.007Z,13.84
2018-04-14T08:24:33.023Z,13.99
2018-04-14T08:25:33.047Z,14.04
2018-04-14T08:26:33.070Z,14.01
2018-04-14T08:27:33.091Z,14.09
2018-04-14T08:28:33.111Z,14.09
2018-04-14T08:29:33.132Z,14.09
2018-04-14T08:30:33.148Z,14.07
2018-04-14T08:31:33.178Z,14.16
2018-04-14T08:32:33.195Z,14.19
2018-04-14T08:33:33.215Z,14.27
2018-04-14T08:34:33.238Z,14.31
2018-04-14T08:35:33.260Z,14.31
2018-04-14T08:36:33.280Z,14.35
2018-04-14T08:37:33.299Z,14.34
2018-04-14T08:38:33.323Z,14.37
2018-04-14T08:39:33.346Z,14.43
2018-04-14T08:40:33.366Z,14.46
2018-04-14T08:41:33.394Z,14.50
2018-04-14T08:42:33.407Z,14.43
2018-04-14T08:43:33.442Z,14.50
2018-04-14T08:44:33.446Z,14.61
2018-04-14T08:45:33.466Z,14.53
2018-04-14T08:46:33.483Z,14.65
2018-04-14T08:47:33.507Z,14.56
2018-04-14T08:48:33.583Z,14.68
2018-04-14T08:49:33.556Z,14.71
2018-04-14T08:50:33.581Z,14.81
2018-04-14T08:51:33.590Z,14.78
2018-04-14T08:52:33.617Z,14.74
2018-04-14T08:53:33.644Z,14.78
2018-04-14T08:54:33.656Z,14.81
2018-04-14T08:55:33.678Z,14.91
2018-04-14T08:56:33.694Z,14.98
2018-04-14T08:57:33.717Z,15.02
2018-04-14T08:58:33.801Z,15.01
2018-04-14T08:59:33.762Z,15.01
2018-04-14T09:00:33.788Z,15.09
2018-04-14T09:01:33.804Z,15.13
2018-04-14T09:02:33.827Z,15.09
2018-04-14T09:03:33.845Z,15.09
2018-04-14T09:04:33.868Z,15.21
2018-04-14T09:05:33.891Z,15.24
2018-04-14T09:06:33.916Z,15.31
2018-04-14T09:07:33.952Z,15.43
2018-04-14T09:08:33.963Z,15.23
2018-04-14T09:09:33.981Z,15.38
2018-04-14T09:10:34.005Z,15.42
2018-04-14T09:11:34.020Z,15.38
2018-04-14T09:12:34.060Z,15.43
2018-04-14T09:13:34.065Z,15.41
2018-04-14T09:14:34.091Z,15.46
2018-04-14T09:15:34.110Z,15.48
2018-04-14T09:16:34.135Z,15.52
2018-04-14T09:17:34.153Z,15.64
2018-04-14T09:18:34.177Z,15.70
2018-04-14T09:19:34.194Z,15.67
2018-04-14T09:20:34.215Z,15.70
2018-04-14T09:21:34.239Z,15.78
2018-04-14T09:22:34.260Z,15.76
2018-04-14T09:23:34.282Z,15.76
2018-04-14T09:24:34.309Z,15.72
2018-04-14T09:25:34.321Z,15.74
2018-04-14T09:26:34.345Z,15.81
2018-04-14T09:27:34.372Z,15.60
2018-04-14T09:28:34.391Z,15.76
2018-04-14T09:29:34.417Z,15.81
2018-04-14T09:30:34.438Z,15.81
2018-04-14T09:31:34.457Z,15.89
2018-04-14T09:32:34.482Z,16.03
2018-04-14T09:33:34.500Z,15.94
2018-04-14T09:34:34.525Z,16.09
2018-04-14T09:35:34.555Z,16.04
2018-04-14T09:36:34.571Z,16.25
2018-04-14T09:37:34.592Z,16.38
2018-04-14T09:38:34.613Z,16.48
2018-04-14T09:39:34.640Z,16.48
2018-04-14T09:40:34.661Z,16.33
2018-04-14T09:41:34.688Z,16.35
2018-04-14T09:42:34.714Z,16.42
2018-04-14T09:43:34.732Z,16.33
2018-04-14T09:44:34.757Z,16.44
2018-04-14T09:45:34.765Z,16.45
2018-04-14T09:46:34.798Z,16.62
2018-04-14T09:47:34.817Z,16.52
2018-04-14T09:48:34.842Z,16.50
2018-04-14T09:49:34.931Z,16.33
2018-04-14T09:50:34.913Z,16.42
2018-04-14T09:51:34.916Z,16.45
2018-04-14T09:52:34.938Z,16.60
2018-04-14T09:53:34.955Z,16.59
2018-04-14T09:54:34.973Z,16.65
2018-04-14T09:55:35.000Z,16.62
2018-04-14T09:56:35.026Z,16.70
2018-04-14T09:57:35.040Z,16.81
2018-04-14T09:58:35.066Z,16.74
2018-04-14T09:59:35.092Z,16.77
2018-04-14T10:00:35.114Z,16.80
2018-04-14T10:01:35.135Z,16.80
2018-04-14T10:02:35.163Z,16.80
2018-04-14T10:03:35.180Z,16.85
2018-04-14T10:04:35.199Z,16.83
2018-04-14T10:05:35.222Z,16.88
2018-04-14T10:06:35.253Z,16.93
2018-04-14T10:07:35.273Z,16.95
2018-04-14T10:08:35.295Z,16.98
2018-04-14T10:09:35.318Z,17.03
2018-04-14T10:10:35.390Z,17.00
2018-04-14T10:11:35.358Z,16.93
2018-04-14T10:12:35.389Z,16.96
2018-04-14T10:13:35.414Z,17.03
2018-04-14T10:14:35.438Z,16.99
2018-04-14T10:15:35.449Z,17.14
2018-04-14T10:16:35.478Z,17.13
2018-04-14T10:17:35.494Z,17.14
2018-04-14T10:18:35.525Z,17.14
2018-04-14T10:19:35.548Z,17.29
2018-04-14T10:20:35.572Z,17.29
2018-04-14T10:21:35.591Z,17.28
2018-04-14T10:22:35.621Z,17.35
2018-04-14T10:23:35.636Z,17.41
2018-04-14T10:24:35.665Z,17.35
2018-04-14T10:25:35.691Z,17.18
2018-04-14T10:26:35.715Z,17.35
2018-04-14T10:27:35.736Z,17.43
2018-04-14T10:28:35.755Z,17.59
2018-04-14T10:29:35.775Z,17.63
2018-04-14T10:30:35.882Z,17.63
2018-04-14T10:31:35.837Z,17.57
2018-04-14T10:32:35.852Z,17.62
2018-04-14T10:33:35.874Z,17.79
2018-04-14T10:34:35.895Z,17.74
2018-04-14T10:35:35.911Z,17.63
2018-04-14T10:36:35.943Z,17.73
2018-04-14T10:37:35.983Z,17.54
2018-04-14T10:38:35.992Z,17.59
2018-04-14T10:39:36.015Z,17.64
2018-04-14T10:40:36.043Z,17.73
2018-04-14T10:41:36.061Z,17.79
2018-04-14T10:42:36.081Z,17.81
2018-04-14T10:43:36.106Z,17.81
2018-04-14T10:44:36.183Z,17.74
2018-04-14T10:45:36.159Z,17.85
2018-04-14T10:46:36.223Z,18.18
2018-04-14T10:47:36.223Z,18.00
2018-04-14T10:48:36.226Z,18.04
2018-04-14T10:49:36.251Z,18.04
2018-04-14T10:50:36.276Z,18.22
2018-04-14T10:51:36.295Z,18.13
2018-04-14T10:52:36.325Z,18.21
2018-04-14T10:53:36.370Z,18.21
2018-04-14T10:54:36.380Z,17.95
2018-04-14T10:55:36.413Z,18.00
2018-04-14T10:56:36.419Z,18.28
2018-04-14T10:57:36.440Z,18.29
2018-04-14T10:58:36.466Z,18.39
2018-04-14T10:59:36.489Z,18.40
2018-04-14T11:00:36.515Z,18.43
2018-04-14T11:01:36.539Z,18.42
2018-04-14T11:02:36.577Z,18.18
2018-04-14T11:03:36.586Z,18.42
2018-04-14T11:04:36.616Z,18.29
2018-04-14T11:05:36.633Z,18.28
2018-04-14T11:06:36.666Z,18.34
2018-04-14T11:07:36.695Z,18.31
2018-04-14T11:08:36.710Z,18.31
2018-04-14T11:09:36.731Z,18.37
2018-04-14T11:10:36.758Z,18.31
2018-04-14T11:11:36.780Z,18.39
2018-04-14T11:12:36.807Z,18.54
2018-04-14T11:13:36.839Z,18.62
2018-04-14T11:14:36.864Z,18.67
2018-04-14T11:15:36.882Z,18.83
2018-04-14T11:16:36.896Z,18.80
2018-04-14T11:17:36.922Z,18.80
2018-04-14T11:18:36.951Z,18.67
2018-04-14T11:19:36.981Z,18.52
2018-04-14T11:20:37.006Z,18.64
2018-04-14T11:21:37.020Z,18.80
2018-04-14T11:22:37.064Z,18.72
2018-04-14T11:23:37.071Z,18.54
2018-04-14T11:24:37.106Z,18.42
2018-04-14T11:25:37.127Z,18.55
2018-04-14T11:26:37.148Z,18.67
2018-04-14T11:27:37.173Z,18.55
2018-04-14T11:28:37.213Z,18.73
2018-04-14T11:29:37.218Z,18.83
2018-04-14T11:30:37.251Z,19.01
2018-04-14T11:31:37.275Z,19.02
2018-04-14T11:32:37.374Z,18.97
2018-04-14T11:33:37.314Z,18.87
2018-04-14T11:34:37.354Z,19.08
2018-04-14T11:35:37.367Z,19.11
2018-04-14T11:36:37.398Z,18.94
2018-04-14T11:37:37.419Z,19.20
2018-04-14T11:38:37.440Z,19.42
2018-04-14T11:39:37.471Z,19.36
2018-04-14T11:40:37.519Z,19.06
2018-04-14T11:41:37.522Z,19.02
2018-04-14T11:42:37.561Z,19.25
2018-04-14T11:43:37.571Z,19.33
2018-04-14T11:44:37.688Z,19.43
2018-04-14T11:45:37.611Z,19.48
2018-04-14T11:46:37.672Z,19.53
2018-04-14T11:47:37.669Z,19.58
2018-04-14T11:48:37.693Z,19.60
2018-04-14T11:49:37.717Z,19.78
2018-04-14T11:50:37.745Z,19.86
2018-04-14T11:51:37.768Z,19.87
2018-04-14T11:52:37.791Z,20.02
2018-04-14T11:53:37.829Z,20.05
2018-04-14T11:54:37.844Z,19.95
2018-04-14T11:55:37.869Z,20.09
2018-04-14T11:56:37.892Z,20.23
2018-04-14T11:57:37.923Z,20.24
2018-04-14T11:58:37.941Z,20.16
2018-04-14T11:59:37.998Z,19.88
2018-04-14T12:00:38.000Z,19.88
2018-04-14T12:01:38.018Z,19.91
2018-04-14T12:02:38.044Z,20.02
2018-04-14T12:03:38.117Z,20.06
2018-04-14T12:04:38.100Z,20.10
2018-04-14T12:05:38.124Z,20.06
2018-04-14T12:06:38.153Z,20.16
2018-04-14T12:07:38.192Z,20.38
2018-04-14T12:08:38.208Z,20.43
2018-04-14T12:09:38.230Z,20.49
2018-04-14T12:10:38.257Z,20.71
2018-04-14T12:11:38.275Z,20.62
2018-04-14T12:12:38.302Z,20.72
2018-04-14T12:13:38.329Z,20.64
2018-04-14T12:14:38.367Z,20.76
2018-04-14T12:15:38.377Z,20.81
2018-04-14T12:16:38.405Z,20.79
2018-04-14T12:17:38.432Z,20.95
2018-04-14T12:18:38.458Z,21.20
2018-04-14T12:19:38.487Z,21.13
2018-04-14T12:20:38.509Z,21.11
2018-04-14T12:21:38.558Z,20.90
2018-04-14T12:22:38.593Z,20.79
2018-04-14T12:23:38.588Z,20.89
2018-04-14T12:24:38.617Z,21.20
2018-04-14T12:25:38.640Z,21.21
2018-04-14T12:26:38.661Z,21.23
2018-04-14T12:27:38.688Z,21.48
2018-04-14T12:28:38.720Z,21.23
2018-04-14T12:29:38.747Z,21.34
2018-04-14T12:30:38.770Z,21.44
2018-04-14T12:31:38.797Z,21.69
2018-04-14T12:32:38.830Z,21.78
2018-04-14T12:33:38.846Z,21.92
2018-04-14T12:34:38.915Z,22.13
2018-04-14T12:35:38.905Z,22.13
2018-04-14T12:36:38.933Z,22.39
2018-04-14T12:37:38.972Z,22.57
2018-04-14T12:38:38.987Z,22.53
2018-04-14T12:39:39.017Z,22.25
2018-04-14T12:40:39.041Z,22.50
2018-04-14T12:41:39.070Z,22.67
2018-04-14T12:42:39.088Z,22.53
2018-04-14T12:43:39.126Z,22.72
2018-04-14T12:44:39.148Z,22.75
2018-04-14T12:45:39.191Z,22.57
2018-04-14T12:46:39.255Z,22.71
2018-04-14T12:47:39.238Z,22.13
2018-04-14T12:48:39.268Z,22.35
2018-04-14T12:49:39.298Z,22.80
2018-04-14T12:50:39.321Z,22.86
2018-04-14T12:51:39.350Z,23.32
2018-04-14T12:52:39.370Z,23.71
2018-04-14T12:53:39.416Z,23.11
2018-04-14T12:54:39.442Z,23.42
2018-04-14T12:55:39.461Z,23.83
2018-04-14T12:56:39.493Z,24.35
2018-04-14T12:57:39.527Z,24.69
2018-04-14T12:58:39.550Z,25.12
2018-04-14T12:59:39.581Z,24.50
2018-04-14T13:00:39.611Z,24.00
2018-04-14T13:01:39.634Z,23.82